Time;durP1;ratioP1;P1;durP2;ratioP2;P2;SDS_P1;SDS_P2;PMS_P1;PMS_P2;Temp;Humidity;BMP_temperature;BMP_pressure;BME280_temperature;BME280_humidity;BME280_pressure;Samples;Min_cycle;Max_cycle;Signal;HPM_P1;HPM_P2
2023/01/24 00:01:23;;;;;;;37.75;19.27;;;2.20;97.50;;;;;;5026530;28;20454;-70
2023/01/24 00:03:49;;;;;;;31.65;17.83;;;2.20;97.60;;;;;;5021838;28;20034;-68
2023/01/24 00:06:14;;;;;;;33.03;18.52;;;2.20;97.60;;;;;;5026255;28;20519;-68
2023/01/24 00:08:40;;;;;;;33.88;19.25;;;2.20;97.60;;;;;;5018077;28;20046;-68
2023/01/24 00:11:09;;;;;;;33.50;18.38;;;2.20;97.70;;;;;;5024861;28;20037;-68
2023/01/24 00:13:35;;;;;;;39.60;19.00;;;2.20;97.70;;;;;;5023017;28;20955;-68
2023/01/24 00:16:16;;;;;;;33.08;18.00;;;2.20;97.70;;;;;;5026249;28;20044;-68
2023/01/24 00:18:41;;;;;;;31.48;17.90;;;2.20;97.70;;;;;;5014095;28;20099;-68
2023/01/24 00:21:12;;;;;;;32.92;17.83;;;2.20;97.80;;;;;;5023862;28;20127;-69
2023/01/24 00:23:38;;;;;;;33.42;18.08;;;2.20;97.80;;;;;;5022859;28;20520;-68
2023/01/24 00:26:03;;;;;;;34.38;18.58;;;2.20;97.80;;;;;;5021909;28;20030;-69
2023/01/24 00:28:29;;;;;;;41.10;19.17;;;2.20;97.80;;;;;;5027283;28;20034;-69
2023/01/24 00:30:55;;;;;;;32.20;18.27;;;2.20;97.80;;;;;;5026806;28;20041;-68
2023/01/24 00:33:20;;;;;;;35.53;18.63;;;2.20;97.80;;;;;;5019222;28;20037;-70
2023/01/24 00:35:46;;;;;;;32.47;18.67;;;2.10;97.80;;;;;;5021806;28;20029;-68
2023/01/24 00:38:11;;;;;;;40.75;19.13;;;2.10;97.80;;;;;;5019681;28;20493;-69
2023/01/24 00:40:37;;;;;;;41.30;19.10;;;2.10;97.80;;;;;;5029490;28;20485;-70
2023/01/24 00:43:05;;;;;;;37.47;18.27;;;2.10;97.80;;;;;;5032781;28;20037;-68
2023/01/24 00:45:31;;;;;;;33.53;18.98;;;2.10;97.80;;;;;;5027914;28;20540;-69
2023/01/24 00:47:56;;;;;;;38.08;17.95;;;2.10;97.80;;;;;;5025767;28;20124;-68
2023/01/24 00:50:21;;;;;;;33.22;18.38;;;2.10;97.90;;;;;;5022095;28;20390;-68
2023/01/24 00:52:47;;;;;;;34.03;17.95;;;2.10;97.90;;;;;;5027178;28;20160;-68
2023/01/24 00:55:12;;;;;;;33.97;18.15;;;2.10;97.80;;;;;;5027281;28;20091;-68
2023/01/24 00:57:38;;;;;;;34.70;18.25;;;2.10;97.90;;;;;;5027547;28;20041;-68
2023/01/24 01:00:04;;;;;;;38.70;18.30;;;2.10;97.90;;;;;;5014330;28;20037;-69
2023/01/24 01:02:29;;;;;;;39.42;19.23;;;2.10;97.90;;;;;;5027212;28;20034;-69
2023/01/24 01:04:55;;;;;;;32.47;18.38;;;2.10;97.90;;;;;;5014044;28;20041;-68
2023/01/24 01:07:22;;;;;;;33.83;17.75;;;2.10;97.80;;;;;;5022915;28;20330;-69
2023/01/24 01:09:48;;;;;;;35.17;18.02;;;2.10;97.80;;;;;;5019670;28;20040;-68
2023/01/24 01:12:13;;;;;;;34.78;19.20;;;2.10;97.90;;;;;;5023850;28;20030;-68
2023/01/24 01:14:39;;;;;;;36.28;19.38;;;2.10;97.80;;;;;;5028033;28;20033;-68
2023/01/24 01:17:04;;;;;;;36.10;18.27;;;2.10;97.90;;;;;;5028934;28;20034;-68
2023/01/24 01:19:30;;;;;;;36.33;19.10;;;2.10;97.90;;;;;;5028542;28;20036;-69
2023/01/24 01:21:55;;;;;;;38.78;20.15;;;2.10;97.90;;;;;;5030439;28;20378;-69
2023/01/24 01:24:21;;;;;;;33.78;18.25;;;2.10;97.90;;;;;;5032746;28;20060;-68
2023/01/24 01:26:46;;;;;;;32.00;18.92;;;2.10;97.90;;;;;;5019993;28;20038;-68
2023/01/24 01:29:11;;;;;;;33.15;18.55;;;2.10;97.90;;;;;;5028777;28;20044;-68
2023/01/24 01:31:37;;;;;;;35.58;18.25;;;2.10;97.80;;;;;;5031544;28;20385;-68
2023/01/24 01:34:02;;;;;;;38.63;17.73;;;2.10;97.90;;;;;;5023232;28;20040;-69
2023/01/24 01:36:28;;;;;;;32.25;18.70;;;2.10;97.80;;;;;;5020507;28;20400;-68
2023/01/24 01:38:53;;;;;;;35.22;19.15;;;2.10;97.90;;;;;;5024829;28;20450;-68
2023/01/24 01:41:19;;;;;;;36.55;19.20;;;2.10;97.90;;;;;;5035632;28;20076;-68
2023/01/24 01:46:46;;;;;;;33.90;17.52;;;2.10;97.90;;;;;;5047592;28;20041;-68
2023/01/24 01:49:19;;;;;;;37.33;17.33;;;2.10;97.90;;;;;;5022069;28;20042;-68
2023/01/24 01:51:48;;;;;;;37.05;18.70;;;2.10;97.90;;;;;;5019274;28;20477;-68
2023/01/24 01:54:27;;;;;;;33.25;16.90;;;2.10;97.90;;;;;;5024394;28;20116;-68
2023/01/24 01:56:58;;;;;;;34.33;17.75;;;2.10;97.90;;;;;;5021229;28;20022;-68
2023/01/24 01:59:28;;;;;;;35.45;17.70;;;2.10;97.90;;;;;;5027017;28;20033;-68
2023/01/24 02:01:56;;;;;;;33.10;18.25;;;2.00;97.80;;;;;;5023779;28;20382;-70
2023/01/24 02:04:29;;;;;;;32.63;18.10;;;2.00;97.90;;;;;;5031872;28;20032;-69
2023/01/24 02:07:01;;;;;;;33.50;17.40;;;2.00;97.90;;;;;;5030786;28;20025;-69
2023/01/24 02:09:31;;;;;;;30.77;16.95;;;2.10;97.90;;;;;;5030399;28;20497;-68
2023/01/24 02:12:01;;;;;;;32.53;17.02;;;2.00;97.80;;;;;;5034131;28;20034;-68
2023/01/24 02:17:11;;;;;;;29.15;16.55;;;2.00;97.70;;;;;;5028556;28;20505;-68
2023/01/24 02:20:11;;;;;;;37.03;16.42;;;2.00;97.70;;;;;;5017104;28;20055;-68
2023/01/24 02:23:36;;;;;;;31.35;17.38;;;2.00;97.60;;;;;;5019168;28;20061;-68
2023/01/24 02:26:09;;;;;;;28.85;15.73;;;2.00;97.60;;;;;;5045218;28;20022;-68
2023/01/24 02:28:35;;;;;;;29.88;16.80;;;2.00;97.60;;;;;;5033086;28;20459;-68
2023/01/24 02:31:03;;;;;;;33.13;16.98;;;2.00;97.60;;;;;;5027292;28;20044;-68
2023/01/24 02:33:30;;;;;;;28.27;16.67;;;2.00;97.60;;;;;;5019800;28;20049;-68
2023/01/24 02:36:25;;;;;;;36.20;16.17;;;2.00;97.50;;;;;;5014497;28;20025;-68
2023/01/24 02:39:05;;;;;;;31.67;16.40;;;2.00;97.40;;;;;;5013151;28;20073;-68
2023/01/24 02:41:41;;;;;;;25.83;15.15;;;2.00;97.40;;;;;;5012914;28;20030;-70
2023/01/24 02:44:11;;;;;;;20.67;12.00;;;2.00;97.30;;;;;;5016397;28;20040;-68
2023/01/24 02:46:37;;;;;;;14.83;8.73;;;2.00;96.50;;;;;;5022557;28;20037;-68
2023/01/24 02:49:07;;;;;;;15.90;8.98;;;2.00;95.80;;;;;;5029024;28;20052;-68
2023/01/24 02:54:17;;;;;;;12.43;7.75;;;2.00;94.50;;;;;;5025795;28;20048;-68
2023/01/24 02:59:26;;;;;;;12.00;7.90;;;2.00;94.10;;;;;;5025805;28;20176;-68
2023/01/24 03:01:52;;;;;;;13.90;7.72;;;2.00;93.80;;;;;;5018380;28;20116;-68
2023/01/24 03:04:17;;;;;;;17.00;8.32;;;2.10;93.60;;;;;;5025384;28;20071;-68
2023/01/24 03:06:43;;;;;;;16.20;9.07;;;2.00;93.80;;;;;;5029115;28;20048;-69
2023/01/24 03:09:18;;;;;;;14.68;8.73;;;2.00;93.60;;;;;;5025824;28;20484;-68
2023/01/24 03:11:45;;;;;;;15.65;9.35;;;2.10;93.90;;;;;;5015204;28;20033;-68
2023/01/24 03:36:06;;;;;;;14.30;8.82;;;2.00;93.70;;;;;;5028379;28;20036;-69
2023/01/24 03:41:16;;;;;;;15.75;9.65;;;2.00;93.70;;;;;;5026631;28;20037;-67
2023/01/24 03:43:43;;;;;;;16.58;9.98;;;2.00;93.80;;;;;;5025724;28;20029;-68
2023/01/24 03:46:09;;;;;;;14.60;9.55;;;2.00;93.80;;;;;;5022072;28;20433;-67
2023/01/24 03:48:36;;;;;;;16.27;10.00;;;2.00;93.80;;;;;;5026539;28;20037;-69
2023/01/24 03:53:47;;;;;;;15.23;9.15;;;2.00;93.90;;;;;;5017412;28;20115;-68
2023/01/24 03:56:12;;;;;;;16.52;9.18;;;2.00;93.90;;;;;;5026777;28;20120;-67
2023/01/24 03:58:38;;;;;;;13.95;9.75;;;2.00;94.00;;;;;;5021296;28;20094;-68
2023/01/24 04:01:03;;;;;;;18.55;10.88;;;2.00;94.00;;;;;;5022101;28;20037;-68
2023/01/24 04:03:30;;;;;;;17.67;10.15;;;2.00;93.90;;;;;;5020257;28;20045;-69
2023/01/24 04:05:56;;;;;;;13.02;8.68;;;2.00;93.60;;;;;;5018078;28;20120;-68
2023/01/24 04:08:21;;;;;;;11.52;7.65;;;1.90;93.10;;;;;;5024516;28;20168;-67
2023/01/24 04:10:47;;;;;;;11.70;6.45;;;1.90;92.20;;;;;;5014383;28;20061;-68
2023/01/24 04:13:12;;;;;;;10.35;6.30;;;2.00;91.80;;;;;;5030543;28;20048;-68
2023/01/24 04:15:39;;;;;;;11.15;6.40;;;1.90;91.70;;;;;;5019681;28;20029;-68
2023/01/24 04:18:06;;;;;;;9.85;6.25;;;2.00;91.70;;;;;;5026990;28;20030;-67
2023/01/24 04:20:34;;;;;;;17.65;7.05;;;2.00;91.50;;;;;;5026569;28;20026;-68
2023/01/24 04:23:04;;;;;;;12.48;6.80;;;2.00;92.00;;;;;;5014167;28;20144;-68
2023/01/24 04:25:30;;;;;;;11.50;7.03;;;2.00;91.90;;;;;;5024640;28;20080;-67
2023/01/24 04:27:56;;;;;;;13.32;7.53;;;2.00;92.00;;;;;;5023089;28;20480;-68
2023/01/24 04:30:21;;;;;;;11.48;7.10;;;2.00;92.10;;;;;;5026750;28;20088;-67
2023/01/24 04:32:46;;;;;;;14.20;7.57;;;2.00;92.40;;;;;;5024997;28;20081;-68
2023/01/24 04:35:21;;;;;;;15.75;8.32;;;1.90;92.50;;;;;;5035369;28;20033;-69
2023/01/24 04:37:47;;;;;;;15.13;8.20;;;1.90;92.60;;;;;;5043660;28;20111;-68
2023/01/24 04:40:13;;;;;;;15.48;8.68;;;1.90;92.70;;;;;;5030732;28;20529;-67
2023/01/24 04:42:39;;;;;;;17.20;10.02;;;2.00;92.60;;;;;;5025608;28;20317;-67
2023/01/24 04:45:05;;;;;;;13.90;7.95;;;2.00;92.70;;;;;;5021101;28;20037;-69
2023/01/24 04:47:31;;;;;;;16.02;8.80;;;2.00;92.80;;;;;;5030427;28;20030;-67
2023/01/24 04:49:56;;;;;;;15.30;9.00;;;1.90;92.90;;;;;;5014127;28;20033;-68
2023/01/24 04:52:21;;;;;;;16.02;9.32;;;1.90;92.90;;;;;;5029931;28;20420;-67
2023/01/24 04:54:47;;;;;;;15.07;8.75;;;1.90;93.00;;;;;;5029690;28;20103;-68
2023/01/24 04:57:12;;;;;;;13.50;8.05;;;1.90;93.00;;;;;;5026065;28;20040;-67
2023/01/24 04:59:38;;;;;;;13.35;7.80;;;1.90;93.00;;;;;;5016539;28;20123;-68
2023/01/24 05:02:04;;;;;;;14.20;8.43;;;1.90;93.10;;;;;;5026807;28;20103;-68
2023/01/24 05:04:30;;;;;;;16.35;9.32;;;1.90;92.90;;;;;;5040544;28;20064;-70
2023/01/24 05:06:55;;;;;;;12.38;8.00;;;1.90;93.00;;;;;;5032388;28;20040;-67
2023/01/24 05:09:21;;;;;;;13.48;8.50;;;1.90;93.10;;;;;;5027700;28;20077;-68
2023/01/24 05:11:46;;;;;;;14.75;8.75;;;2.00;93.00;;;;;;5036452;28;20039;-67
2023/01/24 05:14:12;;;;;;;13.40;8.68;;;1.90;92.90;;;;;;5026542;28;20082;-67
2023/01/24 05:16:38;;;;;;;18.10;8.95;;;1.90;92.90;;;;;;5041360;28;20051;-67
2023/01/24 05:19:04;;;;;;;15.70;8.77;;;1.90;92.90;;;;;;5029245;28;20037;-68
2023/01/24 05:21:30;;;;;;;15.65;8.93;;;1.90;92.80;;;;;;5032896;28;20044;-68
2023/01/24 05:23:56;;;;;;;13.95;8.35;;;1.90;92.70;;;;;;5026897;28;20057;-68
2023/01/24 05:26:23;;;;;;;13.95;8.38;;;1.90;92.90;;;;;;5018643;28;20072;-69
2023/01/24 05:28:50;;;;;;;14.13;8.20;;;1.90;92.90;;;;;;5023819;28;20040;-68
2023/01/24 05:31:16;;;;;;;13.48;7.72;;;1.90;92.70;;;;;;5030151;28;20477;-67
2023/01/24 05:33:42;;;;;;;12.93;8.45;;;1.90;92.50;;;;;;5026687;28;20033;-67
2023/01/24 05:36:13;;;;;;;14.55;8.32;;;1.90;92.70;;;;;;5027237;28;20034;-68
2023/01/24 05:38:39;;;;;;;12.52;7.35;;;1.90;92.40;;;;;;5020469;28;20030;-67
2023/01/24 05:41:07;;;;;;;12.48;8.00;;;1.90;92.50;;;;;;5015769;28;20364;-69
2023/01/24 05:43:34;;;;;;;13.48;7.90;;;1.90;92.50;;;;;;5018788;28;20068;-68
2023/01/24 05:46:02;;;;;;;12.77;6.85;;;1.90;92.20;;;;;;5029694;28;20481;-68
2023/01/24 05:48:27;;;;;;;13.13;7.45;;;1.90;92.10;;;;;;5027311;28;20048;-69
2023/01/24 05:51:08;;;;;;;12.63;7.43;;;1.90;92.20;;;;;;5017896;28;20034;-69
2023/01/24 05:53:36;;;;;;;9.70;6.20;;;1.80;92.40;;;;;;5034878;28;20471;-69
2023/01/24 05:56:04;;;;;;;9.43;5.45;;;1.80;92.20;;;;;;5024872;28;20445;-69
2023/01/24 05:58:33;;;;;;;10.18;6.05;;;1.90;91.70;;;;;;5027311;28;20389;-69
2023/01/24 06:00:59;;;;;;;10.85;6.75;;;1.80;91.70;;;;;;5028064;28;20041;-68
2023/01/24 06:03:24;;;;;;;12.50;7.05;;;1.80;92.00;;;;;;5029099;28;20132;-69
2023/01/24 06:05:53;;;;;;;11.85;7.30;;;1.80;91.50;;;;;;5025650;28;20390;-68
2023/01/24 06:08:19;;;;;;;10.73;7.07;;;1.90;91.90;;;;;;5024503;28;20096;-68
2023/01/24 06:10:44;;;;;;;13.35;8.30;;;1.80;92.00;;;;;;5019068;28;20394;-69
2023/01/24 06:13:11;;;;;;;14.25;8.98;;;1.80;92.00;;;;;;5032381;28;20040;-69
2023/01/24 06:15:37;;;;;;;13.23;7.93;;;1.80;91.90;;;;;;5020678;28;20025;-69
2023/01/24 06:18:04;;;;;;;14.45;8.13;;;1.80;92.00;;;;;;5029158;28;20064;-69
2023/01/24 06:20:29;;;;;;;13.75;7.65;;;1.80;92.10;;;;;;5028349;28;20058;-68
2023/01/24 06:23:13;;;;;;;14.63;7.82;;;1.80;92.10;;;;;;5017251;28;20042;-69
2023/01/24 06:25:39;;;;;;;14.23;7.95;;;1.80;92.20;;;;;;5016590;28;20030;-68
2023/01/24 06:28:05;;;;;;;12.48;7.53;;;1.80;92.20;;;;;;5020497;28;20540;-69
2023/01/24 06:30:30;;;;;;;13.00;7.63;;;1.80;92.00;;;;;;5029111;28;20520;-68
2023/01/24 06:33:20;;;;;;;13.30;8.10;;;1.80;92.20;;;;;;5022140;28;20092;-69
2023/01/24 06:36:22;;;;;;;14.68;8.55;;;1.90;92.40;;;;;;5016156;28;20117;-68
2023/01/24 06:38:48;;;;;;;12.10;7.65;;;1.80;92.40;;;;;;5028149;28;20029;-69
2023/01/24 06:41:16;;;;;;;15.27;8.45;;;1.80;92.40;;;;;;5029827;28;20029;-68
2023/01/24 06:43:45;;;;;;;12.02;7.63;;;1.80;92.50;;;;;;5025547;28;20079;-68
2023/01/24 06:46:12;;;;;;;15.43;8.07;;;1.80;92.50;;;;;;5026517;28;20371;-68
2023/01/24 06:48:38;;;;;;;13.65;8.38;;;1.80;92.50;;;;;;5025970;28;20072;-68
2023/01/24 06:51:05;;;;;;;15.77;8.98;;;1.80;92.60;;;;;;5024921;28;20025;-68
2023/01/24 06:53:32;;;;;;;14.23;8.10;;;1.80;92.60;;;;;;5028683;28;20029;-68
2023/01/24 06:55:57;;;;;;;14.25;8.80;;;1.80;92.60;;;;;;5022407;28;20034;-69
2023/01/24 06:58:23;;;;;;;14.68;8.10;;;1.80;92.60;;;;;;5019755;28;20048;-68
2023/01/24 07:00:48;;;;;;;13.85;8.38;;;1.80;92.60;;;;;;5020596;28;20030;-74
2023/01/24 07:03:14;;;;;;;14.32;8.23;;;1.80;92.50;;;;;;5021736;28;20033;-69
2023/01/24 07:05:39;;;;;;;14.77;8.98;;;1.80;92.50;;;;;;5021427;28;20038;-69
2023/01/24 07:08:06;;;;;;;15.35;8.88;;;1.80;92.60;;;;;;5023768;28;20796;-68
2023/01/24 07:10:31;;;;;;;16.05;8.88;;;1.80;92.60;;;;;;5021565;28;20108;-68
2023/01/24 07:12:57;;;;;;;18.50;9.00;;;1.80;92.60;;;;;;5037979;28;20529;-68
2023/01/24 07:15:23;;;;;;;13.50;8.15;;;1.80;92.70;;;;;;5017719;28;20038;-69
2023/01/24 07:17:48;;;;;;;15.45;8.20;;;1.80;92.70;;;;;;5021668;28;20033;-68
2023/01/24 07:20:14;;;;;;;12.20;6.93;;;1.80;92.80;;;;;;5021185;28;20370;-68
2023/01/24 07:22:41;;;;;;;12.50;7.45;;;1.80;92.50;;;;;;5015294;28;20061;-68
2023/01/24 07:25:15;;;;;;;13.60;7.38;;;1.80;92.60;;;;;;5025888;28;20021;-68
2023/01/24 07:27:42;;;;;;;11.63;6.72;;;1.80;92.60;;;;;;5020971;28;20517;-69
2023/01/24 07:30:08;;;;;;;13.07;7.13;;;1.80;92.50;;;;;;5010741;28;20369;-69
2023/01/24 07:32:34;;;;;;;13.77;7.47;;;1.80;92.20;;;;;;5017827;28;20029;-68
2023/01/24 07:34:59;;;;;;;14.43;7.65;;;1.80;92.40;;;;;;5021322;28;20405;-71
2023/01/24 07:37:25;;;;;;;12.40;7.50;;;1.70;92.30;;;;;;5020453;28;20025;-69
2023/01/24 07:39:50;;;;;;;13.73;7.90;;;1.70;92.10;;;;;;5022603;28;20125;-70
2023/01/24 07:42:16;;;;;;;15.00;7.95;;;1.80;92.20;;;;;;5019247;28;20026;-68
2023/01/24 07:44:41;;;;;;;12.45;8.20;;;1.80;92.20;;;;;;5027378;28;20446;-68
2023/01/24 07:47:06;;;;;;;14.07;7.88;;;1.80;92.30;;;;;;5029474;28;20041;-68
2023/01/24 07:49:32;;;;;;;14.40;8.93;;;1.80;92.40;;;;;;5023632;28;20068;-68
2023/01/24 07:51:57;;;;;;;12.68;8.27;;;1.80;92.50;;;;;;5018358;28;20426;-69
2023/01/24 07:54:23;;;;;;;13.75;7.57;;;1.80;92.40;;;;;;5024846;28;20033;-68
2023/01/24 07:56:48;;;;;;;13.85;7.53;;;1.80;92.50;;;;;;5022633;28;20100;-68
2023/01/24 07:59:14;;;;;;;14.23;7.65;;;1.70;92.40;;;;;;5029915;28;20041;-68
2023/01/24 08:01:40;;;;;;;13.95;8.05;;;1.80;92.50;;;;;;5021964;28;20041;-68
2023/01/24 08:04:05;;;;;;;12.90;7.75;;;1.70;92.50;;;;;;5026768;28;20092;-68
2023/01/24 08:06:31;;;;;;;14.30;6.82;;;1.70;92.60;;;;;;5022302;28;20077;-68
2023/01/24 08:08:56;;;;;;;13.30;8.02;;;1.80;92.60;;;;;;5028104;28;20077;-68
2023/01/24 08:11:22;;;;;;;14.70;7.55;;;1.80;92.40;;;;;;5023283;28;20037;-69
2023/01/24 08:13:49;;;;;;;14.05;8.18;;;1.80;92.30;;;;;;5027199;28;20508;-68
2023/01/24 08:16:15;;;;;;;13.30;7.60;;;1.80;92.10;;;;;;5012499;28;20113;-68
2023/01/24 08:18:41;;;;;;;13.02;7.45;;;1.70;92.00;;;;;;5023926;28;20132;-68
2023/01/24 08:21:07;;;;;;;11.13;6.85;;;1.70;92.10;;;;;;5021131;28;20029;-69
2023/01/24 08:23:33;;;;;;;11.57;7.20;;;1.70;92.10;;;;;;5027125;28;20057;-69
2023/01/24 08:25:59;;;;;;;11.27;7.05;;;1.80;91.90;;;;;;5024220;28;20087;-68
2023/01/24 08:28:25;;;;;;;12.68;7.22;;;1.80;91.80;;;;;;5028724;28;20091;-68
2023/01/24 08:30:51;;;;;;;13.65;7.93;;;1.80;91.90;;;;;;5032955;28;20037;-68
2023/01/24 08:33:19;;;;;;;11.30;6.80;;;1.70;91.90;;;;;;5030155;28;20030;-68
2023/01/24 08:35:45;;;;;;;12.18;7.20;;;1.80;92.00;;;;;;5033543;28;20440;-68
2023/01/24 08:38:12;;;;;;;13.48;7.47;;;1.80;91.90;;;;;;5037257;28;20117;-68
2023/01/24 08:40:37;;;;;;;12.10;6.78;;;1.80;92.00;;;;;;5023278;28;20029;-68
2023/01/24 08:43:06;;;;;;;10.77;6.50;;;1.80;92.10;;;;;;5037643;28;20040;-68
2023/01/24 08:45:31;;;;;;;11.10;7.20;;;1.80;92.00;;;;;;5036249;28;20021;-68
2023/01/24 08:47:57;;;;;;;11.82;6.90;;;1.80;91.90;;;;;;5034382;28;20040;-68
2023/01/24 08:50:22;;;;;;;10.02;6.53;;;1.80;91.90;;;;;;5025496;28;20025;-68
2023/01/24 08:52:48;;;;;;;14.07;6.85;;;1.80;91.80;;;;;;5036311;28;20385;-69
2023/01/24 08:55:14;;;;;;;12.52;7.05;;;1.90;91.60;;;;;;5032561;28;20116;-68
2023/01/24 08:57:40;;;;;;;11.82;7.13;;;1.80;91.40;;;;;;5024808;28;20065;-69
2023/01/24 09:00:06;;;;;;;12.77;6.95;;;1.80;91.50;;;;;;5024190;28;20412;-69
2023/01/24 09:02:37;;;;;;;14.98;6.75;;;1.80;91.40;;;;;;5024952;28;20037;-67
2023/01/24 09:05:04;;;;;;;12.30;7.20;;;1.80;91.50;;;;;;5035072;28;20132;-67
2023/01/24 09:07:30;;;;;;;11.63;7.00;;;1.90;91.60;;;;;;5028244;28;20538;-68
2023/01/24 09:09:56;;;;;;;13.27;6.60;;;1.90;91.60;;;;;;5026420;28;20128;-68
2023/01/24 09:12:21;;;;;;;12.90;7.40;;;1.90;91.80;;;;;;5037380;28;20033;-68
2023/01/24 09:14:47;;;;;;;11.63;7.20;;;1.90;91.60;;;;;;5029447;28;20056;-67
2023/01/24 09:17:12;;;;;;;12.07;6.78;;;1.90;91.60;;;;;;5032033;28;20037;-69
2023/01/24 09:19:37;;;;;;;13.45;7.10;;;1.90;91.40;;;;;;5024449;28;20076;-68
2023/01/24 09:22:03;;;;;;;12.93;7.38;;;1.90;91.50;;;;;;5028333;28;20120;-68
2023/01/24 09:24:28;;;;;;;10.63;6.50;;;1.90;91.60;;;;;;5028347;28;20045;-68
2023/01/24 09:26:54;;;;;;;8.98;5.53;;;1.90;91.40;;;;;;5022639;28;20474;-69
2023/01/24 09:29:19;;;;;;;8.63;5.53;;;1.80;91.00;;;;;;5022154;28;20053;-69
2023/01/24 09:31:47;;;;;;;9.75;5.75;;;1.90;91.00;;;;;;5023870;28;20557;-69
2023/01/24 09:34:13;;;;;;;8.35;5.32;;;1.80;90.90;;;;;;5027422;28;20034;-69
2023/01/24 09:36:39;;;;;;;11.40;5.90;;;1.80;90.90;;;;;;5026254;28;20040;-69
2023/01/24 09:39:04;;;;;;;9.00;5.28;;;1.90;90.80;;;;;;5025569;28;20045;-69
2023/01/24 09:42:00;;;;;;;9.20;5.40;;;1.90;90.70;;;;;;5033126;28;20034;-70
2023/01/24 09:44:34;;;;;;;10.20;5.38;;;1.90;90.60;;;;;;5030640;28;20469;-69
2023/01/24 09:47:06;;;;;;;9.18;5.60;;;1.80;90.10;;;;;;5018176;28;20052;-69
2023/01/24 09:49:50;;;;;;;9.43;5.13;;;1.90;90.50;;;;;;5031283;28;20045;-71
2023/01/24 09:52:40;;;;;;;9.25;5.47;;;1.90;90.60;;;;;;5020676;28;20041;-69
2023/01/24 09:55:30;;;;;;;10.63;4.90;;;1.90;90.50;;;;;;5032176;28;20076;-69
2023/01/24 09:58:04;;;;;;;8.60;4.60;;;2.00;90.30;;;;;;5028093;28;20057;-69
2023/01/24 10:00:38;;;;;;;9.75;5.95;;;1.90;90.10;;;;;;5021749;28;20498;-70
2023/01/24 10:03:17;;;;;;;9.48;5.10;;;1.90;90.20;;;;;;5026483;28;20034;-69
2023/01/24 10:05:48;;;;;;;10.68;5.63;;;1.90;90.20;;;;;;5023891;28;20428;-69
2023/01/24 10:08:31;;;;;;;10.63;5.85;;;1.90;90.20;;;;;;5026903;28;20051;-69
2023/01/24 10:11:34;;;;;;;10.75;5.88;;;2.00;90.30;;;;;;5023704;28;20512;-69
2023/01/24 10:14:16;;;;;;;11.85;6.22;;;2.10;90.80;;;;;;5020711;28;20026;-69
2023/01/24 10:17:13;;;;;;;11.32;6.18;;;2.10;90.60;;;;;;5027257;28;20139;-68
2023/01/24 10:20:12;;;;;;;9.50;5.30;;;2.10;90.50;;;;;;5028778;28;20099;-68
2023/01/24 10:23:00;;;;;;;12.02;6.30;;;2.10;90.50;;;;;;5023576;28;20085;-68
2023/01/24 10:25:27;;;;;;;9.98;5.70;;;2.10;90.30;;;;;;5023588;28;20038;-68
2023/01/24 10:27:58;;;;;;;10.38;6.15;;;2.10;90.20;;;;;;5021841;28;20041;-68
2023/01/24 10:30:43;;;;;;;12.07;5.65;;;2.00;89.90;;;;;;5022604;28;20049;-68
2023/01/24 10:33:19;;;;;;;11.32;6.22;;;1.90;90.00;;;;;;5019237;28;20038;-68
2023/01/24 10:36:12;;;;;;;10.70;6.38;;;1.90;90.00;;;;;;5015577;28;20539;-69
2023/01/24 10:38:38;;;;;;;9.52;5.75;;;1.90;90.00;;;;;;5026638;28;20417;-68
2023/01/24 10:41:25;;;;;;;10.68;6.00;;;2.00;90.10;;;;;;5031766;28;20030;-68
2023/01/24 10:43:58;;;;;;;10.52;5.82;;;2.00;89.90;;;;;;5032618;28;20095;-68
2023/01/24 10:46:49;;;;;;;12.48;6.88;;;1.90;89.60;;;;;;5024025;28;20035;-68
2023/01/24 10:49:23;;;;;;;9.32;6.60;;;1.90;90.10;;;;;;5016723;28;20116;-68
2023/01/24 10:52:09;;;;;;;10.50;6.78;;;2.00;90.20;;;;;;5020976;28;20145;-68
2023/01/24 10:54:53;;;;;;;9.98;6.40;;;2.10;90.10;;;;;;5025210;28;20083;-68
2023/01/24 10:57:36;;;;;;;10.25;6.22;;;2.10;89.90;;;;;;5025030;28;20393;-68
2023/01/24 11:00:06;;;;;;;13.13;6.88;;;2.10;90.10;;;;;;5017970;28;20049;-68
2023/01/24 11:02:34;;;;;;;12.63;6.78;;;2.00;89.00;;;;;;5023782;28;20044;-68
2023/01/24 11:05:05;;;;;;;10.88;6.22;;;2.00;89.70;;;;;;5022911;28;20021;-68
2023/01/24 11:07:40;;;;;;;10.93;6.75;;;2.10;90.00;;;;;;5027905;28;20033;-69
2023/01/24 11:10:18;;;;;;;13.05;6.60;;;2.10;90.10;;;;;;5024010;28;20042;-68
2023/01/24 11:12:55;;;;;;;12.35;6.53;;;2.10;89.70;;;;;;5032262;28;20088;-68
2023/01/24 11:15:30;;;;;;;11.50;6.72;;;2.10;89.80;;;;;;5023220;28;20108;-68
2023/01/24 11:18:10;;;;;;;14.55;7.00;;;2.20;89.70;;;;;;5029310;28;20120;-68
2023/01/24 11:20:36;;;;;;;12.57;6.90;;;2.20;89.70;;;;;;5023587;28;20029;-68
2023/01/24 11:23:10;;;;;;;11.55;6.03;;;2.10;89.30;;;;;;5026393;28;20455;-68
2023/01/24 11:25:36;;;;;;;10.40;5.93;;;2.10;89.40;;;;;;5024730;28;20029;-68
2023/01/24 11:28:01;;;;;;;11.65;6.05;;;2.10;89.60;;;;;;5029623;28;20462;-68
2023/01/24 11:30:33;;;;;;;12.15;6.80;;;2.10;89.40;;;;;;5028132;28;20192;-68
2023/01/24 11:33:14;;;;;;;12.43;7.05;;;2.10;89.40;;;;;;5024690;28;20122;-68
2023/01/24 11:35:44;;;;;;;;;;;2.10;89.40;;;;;;5028512;28;20025;-68
2023/01/24 11:38:42;;;;;;;13.32;7.07;;;2.10;89.60;;;;;;5028764;28;20376;-69
2023/01/24 11:41:20;;;;;;;10.48;6.45;;;2.10;89.70;;;;;;5026778;28;20163;-69
2023/01/24 11:43:58;;;;;;;11.20;7.07;;;2.10;89.50;;;;;;5030304;28;20025;-69
2023/01/24 11:46:41;;;;;;;15.90;6.60;;;2.20;89.60;;;;;;5033372;28;20371;-68
2023/01/24 11:49:31;;;;;;;12.63;6.68;;;2.30;89.60;;;;;;5022916;28;20029;-68
2023/01/24 11:52:16;;;;;;;11.77;6.45;;;2.30;89.50;;;;;;5022270;28;20037;-68
2023/01/24 11:55:05;;;;;;;12.73;6.03;;;2.10;88.70;;;;;;5032152;28;20025;-68
2023/01/24 11:58:00;;;;;;;10.65;6.03;;;2.20;89.00;;;;;;5022000;28;20034;-69
2023/01/24 12:00:42;;;;;;;10.52;6.15;;;2.10;88.50;;;;;;5019682;28;20045;-69
2023/01/24 12:03:07;;;;;;;13.38;6.32;;;2.20;89.00;;;;;;5023878;28;20521;-68
2023/01/24 12:05:59;;;;;;;10.75;6.13;;;2.10;88.50;;;;;;5025677;28;20117;-69
2023/01/24 12:08:52;;;;;;;14.00;7.00;;;2.10;88.70;;;;;;5024536;28;20049;-68
2023/01/24 12:11:55;;;;;;;11.50;6.63;;;2.00;88.70;;;;;;5026232;28;20037;-68
2023/01/24 12:14:38;;;;;;;12.45;5.70;;;2.10;89.00;;;;;;5017402;28;20401;-68
2023/01/24 12:17:38;;;;;;;11.90;6.05;;;2.00;88.50;;;;;;5028874;28;20030;-68
2023/01/24 12:20:34;;;;;;;14.07;6.03;;;2.00;89.10;;;;;;5019487;28;20516;-68
2023/01/24 12:23:11;;;;;;;10.55;6.18;;;2.00;89.10;;;;;;5020250;28;20054;-68
2023/01/24 12:25:39;;;;;;;12.55;5.82;;;1.90;88.70;;;;;;5022759;28;20108;-68
2023/01/24 12:28:10;;;;;;;11.48;6.20;;;2.10;89.00;;;;;;5035221;28;20041;-68
2023/01/24 12:30:42;;;;;;;11.50;6.05;;;2.10;88.80;;;;;;5034849;28;20046;-70
2023/01/24 12:33:27;;;;;;;13.13;6.22;;;2.10;89.20;;;;;;5020499;28;20095;-69
2023/01/24 12:36:01;;;;;;;13.02;6.80;;;2.10;88.60;;;;;;5018029;28;20034;-68
2023/01/24 12:38:41;;;;;;;13.35;6.28;;;2.10;88.70;;;;;;5028579;28;20367;-68
2023/01/24 12:41:27;;;;;;;13.17;6.70;;;2.10;88.40;;;;;;5020474;28;20044;-68
2023/01/24 12:44:03;;;;;;;11.57;6.38;;;2.20;88.60;;;;;;5023476;28;20112;-68
2023/01/24 12:46:32;;;;;;;10.63;6.47;;;2.10;88.80;;;;;;5027211;28;20080;-69
2023/01/24 12:49:30;;;;;;;12.27;7.07;;;2.10;88.50;;;;;;5024878;28;20038;-68
2023/01/24 12:52:06;;;;;;;13.02;7.28;;;2.20;88.80;;;;;;5017692;28;20129;-70
2023/01/24 12:54:42;;;;;;;13.05;6.57;;;2.10;88.60;;;;;;5019090;28;20057;-68
2023/01/24 12:57:19;;;;;;;10.32;6.55;;;2.20;88.30;;;;;;5028506;28;20033;-68
2023/01/24 12:59:45;;;;;;;13.02;7.45;;;2.30;88.70;;;;;;5022036;28;20048;-69
2023/01/24 13:02:27;;;;;;;12.65;6.57;;;2.20;88.60;;;;;;5025761;28;20462;-68
2023/01/24 13:05:09;;;;;;;13.50;6.75;;;2.20;88.30;;;;;;5026286;28;20040;-68
2023/01/24 13:08:00;;;;;;;13.10;6.80;;;2.10;88.40;;;;;;5021768;28;20470;-68
2023/01/24 13:11:07;;;;;;;11.68;6.32;;;2.10;88.30;;;;;;5024953;28;20110;-68
2023/01/24 13:13:41;;;;;;;9.90;6.03;;;2.20;88.40;;;;;;5024631;28;20087;-67
2023/01/24 13:16:21;;;;;;;13.70;6.85;;;2.10;88.60;;;;;;5027157;28;20059;-68
2023/01/24 13:18:58;;;;;;;12.23;6.40;;;2.10;87.90;;;;;;5031029;28;20037;-68
2023/01/24 13:21:39;;;;;;;12.48;6.57;;;2.10;88.20;;;;;;5030991;28;20033;-67
2023/01/24 13:24:12;;;;;;;;;;;2.10;88.50;;;;;;5029751;28;20045;-68
2023/01/24 13:26:56;;;;;;;11.60;6.00;;;2.10;87.50;;;;;;5031825;28;19909;-67
2023/01/24 13:29:31;;;;;;;10.10;5.53;;;2.10;88.20;;;;;;5030812;28;20462;-68
2023/01/24 13:32:06;;;;;;;8.93;5.57;;;1.90;88.00;;;;;;5028611;28;20117;-68
2023/01/24 13:34:35;;;;;;;9.18;6.13;;;1.90;88.40;;;;;;5031440;28;20548;-69
2023/01/24 13:37:03;;;;;;;12.98;7.95;;;2.00;88.60;;;;;;5027470;28;20025;-69
2023/01/24 13:39:39;;;;;;;11.32;6.45;;;2.00;88.70;;;;;;5030614;28;20124;-68
2023/01/24 13:42:23;;;;;;;13.52;6.72;;;1.80;87.90;;;;;;5034464;28;20061;-69
2023/01/24 13:44:50;;;;;;;13.38;6.60;;;2.00;88.50;;;;;;5033707;28;20112;-68